Home > Products > Valid Products > MTR

000
SAUS44 KMEG 301635
MTRTUP
SPECI KTUP 301634Z 24009KT 9SM -RA SCT026 SCT080 BKN100 24/21 A3007
RMK AO2 LTG DSNT N RAB14 P0002 T02390206





000
SAUS44 KMEG 301613
MTRTUP
SPECI KTUP 301612Z 21012KT 10SM FEW022 BKN027 BKN090 27/20 A3006 RMK
AO2 LTG DSNT N AND S AND SW T02670200





000
SAUS44 KMEG 301554
MTRTUP
METAR KTUP 301553Z 21014KT 10SM SCT021 BKN060 BKN090 27/21 A3006 RMK
AO2 LTG DSNT N AND S AND SW SLP176 T02720206





000
SAUS44 KMEG 301454
MTRTUP
METAR KTUP 301453Z 20012KT 10SM FEW013 OVC090 25/21 A3007 RMK AO2
SLP179 T02500206 50004





000
SAUS44 KMEG 301454
MTRTUP
METAR KTUP 301453Z 20012KT 10SM FEW013 OVC090 25/21 A3007 RMK AO2
SLP179 T02500206 50004





000
SAUS44 KMEG 301354
MTRTUP
METAR KTUP 301353Z 19008KT 10SM FEW011 BKN120 23/20 A3007 RMK AO2
LTG DSNT W SLP180 T02330200





000
SAUS44 KMEG 301354
MTRTUP
METAR KTUP 301353Z 19008KT 10SM FEW011 BKN120 23/20 A3007 RMK AO2
LTG DSNT W SLP180 T02330200





000
SAUS44 KMEG 301254
MTRTUP
METAR KTUP 301253Z 20007KT 10SM BKN060 OVC075 22/20 A3007 RMK AO2
SLP180 T02220200





000
SAUS44 KMEG 301154
MTRTUP
METAR KTUP 301153Z 20005KT 10SM FEW055 FEW090 22/19 A3006 RMK AO2
SLP176 T02170194 10222 20217 53012





000
SAUS44 KMEG 301154
MTRTUP
METAR KTUP 301153Z 20005KT 10SM FEW055 FEW090 22/19 A3006 RMK AO2
SLP176 T02170194 10222 20217 53012





000
SAUS44 KMEG 301054
MTRTUP
METAR KTUP 301053Z 20005KT 10SM CLR 22/19 A3004 RMK AO2 SLP167
T02170194





000
SAUS44 KMEG 301054
MTRTUP
METAR KTUP 301053Z 20005KT 10SM CLR 22/19 A3004 RMK AO2 SLP167
T02170194





000
SAUS44 KMEG 300954
MTRTUP
METAR KTUP 300953Z AUTO 22005KT 10SM BKN090 22/19 A3003 RMK AO2
SLP163 T02170194





000
SAUS44 KMEG 300854
MTRTUP
METAR KTUP 300853Z AUTO 19005KT 10SM CLR 22/19 A3003 RMK AO2 SLP163
T02170189 58010





000
SAUS44 KMEG 300854
MTRTUP
METAR KTUP 300853Z AUTO 19005KT 10SM CLR 22/19 A3003 RMK AO2 SLP163
T02170189 58010





000
SAUS44 KMEG 300754
MTRTUP
METAR KTUP 300753Z AUTO 19006KT 10SM FEW055 SCT110 22/19 A3004 RMK
AO2 SLP166 T02220189





000
SAUS44 KMEG 300654
MTRTUP
METAR KTUP 300653Z AUTO 19004KT 10SM FEW050 FEW060 OVC120 22/19
A3005 RMK AO2 SLP170 T02170194





000
SAUS44 KMEG 300654
MTRTUP
METAR KTUP 300653Z AUTO 19004KT 10SM FEW050 FEW060 OVC120 22/19
A3005 RMK AO2 SLP170 T02170194





000
SAUS44 KMEG 300554
MTRTUP
METAR KTUP 300553Z AUTO 20004KT 10SM BKN100 22/19 A3006 RMK AO2
SLP173 T02220194 10261 20217 402940206 50002





000
SAUS44 KMEG 300554
MTRTUP
METAR KTUP 300553Z AUTO 20004KT 10SM BKN100 22/19 A3006 RMK AO2
SLP173 T02220194 10261 20217 402940206 50002





000
SAUS44 KMEG 300454
MTRTUP
METAR KTUP 300453Z AUTO 20004KT 10SM CLR 22/19 A3006 RMK AO2 SLP174
T02170189





000
SAUS44 KMEG 300354
MTRTUP
METAR KTUP 300353Z AUTO 19004KT 10SM CLR 23/19 A3005 RMK AO2 SLP173
T02280189





000
SAUS44 KMEG 300254
MTRTUP
METAR KTUP 300253Z AUTO 19006KT 10SM CLR 23/19 A3005 RMK AO2 SLP172
T02330189 53006





000
SAUS44 KMEG 300154
MTRTUP
METAR KTUP 300153Z AUTO 19005KT 10SM CLR 24/19 A3004 RMK AO2 SLP168
T02390189





000
SAUS44 KMEG 300054
MTRTUP
METAR KTUP 300053Z AUTO 18005KT 10SM CLR 26/19 A3003 RMK AO2 SLP164
T02560194





000
SAUS44 KMEG 300054
MTRTUP
METAR KTUP 300053Z AUTO 18005KT 10SM CLR 26/19 A3003 RMK AO2 SLP164
T02560194





000
SAUS44 KMEG 292354
MTRTUP
METAR KTUP 292353Z AUTO 19005KT 10SM CLR 26/20 A3003 RMK AO2 SLP166
T02560200 10294 20256 56006





000
SAUS44 KMEG 292354
MTRTUP
METAR KTUP 292353Z AUTO 19005KT 10SM CLR 26/20 A3003 RMK AO2 SLP166
T02560200 10294 20256 56006





000
SAUS44 KMEG 292254
MTRTUP
METAR KTUP 292253Z AUTO 19005KT 10SM CLR 27/20 A3004 RMK AO2 LTG
DSNT SW SLP168 T02720200





000
SAUS44 KMEG 292154
MTRTUP
METAR KTUP 292153Z AUTO 16009KT 10SM FEW036 29/19 A3004 RMK AO2 LTG
DSNT SW SLP167 T02890194





000
SAUS44 KMEG 292154
MTRTUP
METAR KTUP 292153Z AUTO 16009KT 10SM FEW036 29/19 A3004 RMK AO2 LTG
DSNT SW SLP167 T02890194





000
SAUS44 KMEG 292054
MTRTUP
METAR KTUP 292053Z AUTO 20010KT 10SM SCT035 28/19 A3005 RMK AO2
SLP172 T02830194 58022





000
SAUS44 KMEG 292054
MTRTUP
METAR KTUP 292053Z AUTO 20010KT 10SM SCT035 28/19 A3005 RMK AO2
SLP172 T02830194 58022





000
SAUS44 KMEG 291954
MTRTUP
METAR KTUP 291953Z AUTO 20009KT 10SM SCT034 SCT043 28/19 A3007 RMK
AO2 SLP178 T02780194





000
SAUS44 KMEG 291854
MTRTUP
METAR KTUP 291853Z 18007KT 10SM FEW026 FEW042 28/20 A3010 RMK AO2
SLP189 T02830200





000
SAUS44 KMEG 291754
MTRTUP
METAR KTUP 291753Z 24006KT 10SM FEW023 FEW039 27/21 A3012 RMK AO2
SLP194 T02720206 10272 20211 58009





000
SAUS44 KMEG 291713
MTRTUP
SPECI KTUP 291711Z 24006KT 10SM SCT023 SCT028 OVC036 26/20 A3013 RMK
AO2 T02560200





000
SAUS44 KMEG 291655
MTRTUP
METAR KTUP 291653Z 19004KT 10SM BKN020 OVC027 25/20 A3013 RMK AO2
SLP201 T02500200





000
SAUS44 KMEG 291554
MTRTUP
METAR KTUP 291553Z 21005KT 10SM OVC016 24/20 A3015 RMK AO2 SLP204
T02440200





000
SAUS44 KMEG 291545
MTRTUP
SPECI KTUP 291544Z 19006KT 10SM OVC017 24/20 A3015 RMK AO2 T02390200





000
SAUS44 KMEG 291545
MTRTUP
SPECI KTUP 291544Z 19006KT 10SM OVC017 24/20 A3015 RMK AO2 T02390200





000
SAUS44 KMEG 291454
MTRTUP
METAR KTUP 291453Z 18005KT 10SM OVC011 23/20 A3014 RMK AO2 CIG
006V015 SLP204 T02280200 50004





000
SAUS44 KMEG 291449
MTRTUP
SPECI KTUP 291448Z 18007KT 10SM SCT007 OVC011 23/20 A3014 RMK AO2





000
SAUS44 KMEG 291354
MTRTUP
METAR KTUP 291353Z 18006KT 10SM BKN007 OVC011 22/20 A3014 RMK AO2
CIG 005V009 SLP203 T02220200





000
SAUS44 KMEG 291335
MTRTUP
SPECI KTUP 291334Z 17008KT 7SM OVC005 22/20 A3014 RMK AO2 T02170200





000
SAUS44 KMEG 291306
MTRTUP
SPECI KTUP 291305Z 18006KT 4SM BR OVC004 22/20 A3013 RMK AO2
T02170200





000
SAUS44 KMEG 291306
MTRTUP
SPECI KTUP 291305Z 18006KT 4SM BR OVC004 22/20 A3013 RMK AO2
T02170200





000
SAUS44 KMEG 291255
MTRTUP
METAR KTUP 291253Z 18005KT 2 1/2SM BR OVC003 21/20 A3013 RMK AO2
SLP200 T02110200





000
SAUS44 KMEG 291255
MTRTUP
METAR KTUP 291253Z 18005KT 2 1/2SM BR OVC003 21/20 A3013 RMK AO2
SLP200 T02110200





000
SAUS44 KMEG 291246
MTRTUP
SPECI KTUP 291245Z 18004KT 2 1/2SM BR OVC003 21/20 A3013 RMK AO2
T02110200





000
SAUS44 KMEG 291246
MTRTUP
SPECI KTUP 291245Z 18004KT 2 1/2SM BR OVC003 21/20 A3013 RMK AO2
T02110200





000
SAUS44 KMEG 291237
MTRTUP
SPECI KTUP 291235Z 17005KT 1 3/4SM BR OVC003 21/20 A3013 RMK AO2
T02110200





000
SAUS44 KMEG 291237
MTRTUP
SPECI KTUP 291235Z 17005KT 1 3/4SM BR OVC003 21/20 A3013 RMK AO2
T02110200





000
SAUS44 KMEG 291154
MTRTUP
METAR KTUP 291153Z 17003KT 2 1/2SM BR OVC004 21/20 A3011 RMK AO2
SLP193 T02110200 10217 20206 53024





000
SAUS44 KMEG 291154
MTRTUP
METAR KTUP 291153Z 17003KT 2 1/2SM BR OVC004 21/20 A3011 RMK AO2
SLP193 T02110200 10217 20206 53024





000
SAUS44 KMEG 291127
MTRTUP
SPECI KTUP 291126Z 20005KT 2 1/2SM BR OVC004 21/19 A3010 RMK AO2
T02110194





000
SAUS44 KMEG 291054
MTRTUP
METAR KTUP 291053Z 21008KT 5SM BR OVC003 21/19 A3008 RMK AO2 SLP184
T02060194





000
SAUS44 KMEG 291012
MTRTUP
SPECI KTUP 291011Z 20008KT 10SM OVC004 21/19 A3005 RMK AO2 T02060189
TSNO





000
SAUS44 KMEG 290954
MTRTUP
METAR KTUP 290953Z AUTO 19007KT 10SM OVC005 21/19 A3005 RMK AO2
SLP172 T02060189





000
SAUS44 KMEG 290954
MTRTUP
METAR KTUP 290953Z AUTO 19007KT 10SM OVC005 21/19 A3005 RMK AO2
SLP172 T02060189





000
SAUS44 KMEG 290854
MTRTUP
METAR KTUP 290853Z AUTO 20006KT 10SM OVC009 21/19 A3004 RMK AO2
SLP169 T02060189 56013





000
SAUS44 KMEG 290839
MTRTUP
SPECI KTUP 290838Z AUTO 19005KT 10SM OVC009 21/19 A3004 RMK AO2
T02060189





000
SAUS44 KMEG 290820
MTRTUP
SPECI KTUP 290819Z AUTO 17005KT 10SM BKN011 21/19 A3004 RMK AO2
T02110189





000
SAUS44 KMEG 290754
MTRTUP
METAR KTUP 290753Z AUTO 16005KT 10SM FEW008 21/19 A3004 RMK AO2
SLP170 T02110194





000
SAUS44 KMEG 290715
MTRTUP
SPECI KTUP 290714Z AUTO 16003KT 10SM FEW007 21/19 A3006 RMK AO2
T02110194





000
SAUS44 KMEG 290654
MTRTUP
METAR KTUP 290653Z AUTO 20005KT 10SM CLR 21/19 A3007 RMK AO2 SLP178
T02110194





000
SAUS44 KMEG 290625
MTRTUP
SPECI KTUP 290624Z AUTO 19006KT 10SM SCT024 SCT032 22/19 A3007 RMK
AO2 T02170194





000
SAUS44 KMEG 290625
MTRTUP
SPECI KTUP 290624Z AUTO 19006KT 10SM SCT024 SCT032 22/19 A3007 RMK
AO2 T02170194





000
SAUS44 KMEG 290604
MTRTUP
SPECI KTUP 290603Z AUTO 16006KT 10SM BKN024 22/19 A3007 RMK AO2
T02170194





000
SAUS44 KMEG 290554
MTRTUP
METAR KTUP 290553Z AUTO 15005KT 10SM SCT022 22/19 A3008 RMK AO2
SLP182 T02170194 10267 20217 402780183 58011





000
SAUS44 KMEG 290454
MTRTUP
METAR KTUP 290453Z AUTO 15004KT 10SM CLR 22/19 A3009 RMK AO2 SLP186
T02170194





000
SAUS44 KMEG 290454
MTRTUP
METAR KTUP 290453Z AUTO 15004KT 10SM CLR 22/19 A3009 RMK AO2 SLP186
T02170194





000
SAUS44 KMEG 290354
MTRTUP
METAR KTUP 290353Z AUTO 15007KT 10SM CLR 22/19 A3011 RMK AO2 SLP191
T02220189





000
SAUS44 KMEG 290254
MTRTUP
METAR KTUP 290253Z 14007KT 10SM CLR 23/19 A3011 RMK AO2 SLP193
T02330189 51010





000
SAUS44 KMEG 290154
MTRTUP
METAR KTUP 290153Z 15004KT 10SM SCT090 24/19 A3010 RMK AO2 SLP190
T02390189





000
SAUS44 KMEG 290054
MTRTUP
METAR KTUP 290053Z 14005KT 10SM OVC085 25/19 A3009 RMK AO2 SLP187
T02500194





000
SAUS44 KMEG 290054
MTRTUP
METAR KTUP 290053Z 14005KT 10SM OVC085 25/19 A3009 RMK AO2 SLP187
T02500194





000
SAUS44 KMEG 282354
MTRTUP
METAR KTUP 282353Z 12008KT 10SM BKN032 OVC050 27/19 A3008 RMK AO2
SLP183 T02670194 10278 20250 56004





000
SAUS44 KMEG 282354
MTRTUP
METAR KTUP 282353Z 12008KT 10SM BKN032 OVC050 27/19 A3008 RMK AO2
SLP183 T02670194 10278 20250 56004





000
SAUS44 KMEG 282254
MTRTUP
METAR KTUP 282253Z 03003KT 10SM FEW032 27/18 A3008 RMK AO2 SLP183
T02720183





000
SAUS44 KMEG 282154
MTRTUP
METAR KTUP 282153Z 10005KT 10SM SCT046 27/19 A3009 RMK AO2 SLP185
T02670189





000
SAUS44 KMEG 282054
MTRTUP
METAR KTUP 282053Z VRB03KT 10SM BKN034 BKN045 27/18 A3009 RMK AO2
SLP187 T02720183 56026





000
SAUS44 KMEG 281954
MTRTUP
METAR KTUP 281953Z 00000KT 10SM SCT033 SCT120 27/18 A3011 RMK AO2
SLP193 T02670178





000
SAUS44 KMEG 281954
MTRTUP
METAR KTUP 281953Z 00000KT 10SM SCT033 SCT120 27/18 A3011 RMK AO2
SLP193 T02670178





000
SAUS44 KMEG 281906
MTRTUP
SPECI KTUP 281905Z 24005KT 10SM SCT027 BKN038 27/19 A3015 RMK AO2
T02670189





000
SAUS44 KMEG 281854
MTRTUP
METAR KTUP 281853Z 23005KT 10SM BKN027 BKN036 27/19 A3015 RMK AO2
SLP208 T02720189





000
SAUS44 KMEG 281854
MTRTUP
METAR KTUP 281853Z 23005KT 10SM BKN027 BKN036 27/19 A3015 RMK AO2
SLP208 T02720189





000
SAUS44 KMEG 281813
MTRTUP
SPECI KTUP 281811Z VRB03KT 10SM FEW019 BKN031 25/19 A3017 RMK AO2
T02500189





000
SAUS44 KMEG 281754
MTRTUP
METAR KTUP 281753Z 28004KT 10SM SCT018 BKN024 BKN029 26/19 A3017 RMK
AO2 SLP213 T02560194 10256 20200 53002





000
SAUS44 KMEG 281654
MTRTUP
METAR KTUP 281653Z 22004KT 10SM SCT013 OVC023 24/19 A3017 RMK AO2
SLP212 T02390189





000
SAUS44 KMEG 281640
MTRTUP
SPECI KTUP 281639Z 10003KT 10SM SCT011 BKN019 OVC025 23/19 A3017 RMK
AO2 T02330194





000
SAUS44 KMEG 281640
MTRTUP
SPECI KTUP 281639Z 10003KT 10SM SCT011 BKN019 OVC025 23/19 A3017 RMK
AO2 T02330194





000
SAUS44 KMEG 281621
MTRTUP
SPECI KTUP 281620Z 16004KT 10SM SCT010 BKN014 OVC022 23/19 A3017 RMK
AO2 T02280189





000
SAUS44 KMEG 281554
MTRTUP
METAR KTUP 281553Z 15004KT 10SM BKN008 OVC013 22/19 A3017 RMK AO2
SLP212 T02170189





000
SAUS44 KMEG 281554
MTRTUP
METAR KTUP 281553Z 15004KT 10SM BKN008 OVC013 22/19 A3017 RMK AO2
SLP212 T02170189





000
SAUS44 KMEG 281551
MTRTUP
SPECI KTUP 281550Z 14005KT 10SM BKN008 OVC013 22/19 A3017 RMK AO2





000
SAUS44 KMEG 281514
MTRTUP
SPECI KTUP 281513Z 00000KT 10SM OVC010 21/19 A3017 RMK AO2 CIG
007V012 T02110189





000
SAUS44 KMEG 281454
MTRTUP
METAR KTUP 281453Z 17006KT 10SM OVC008 21/19 A3017 RMK AO2 SLP214
T02110189 50003





000
SAUS44 KMEG 281354
MTRTUP
METAR KTUP 281353Z 16005KT 10SM OVC009 21/18 A3018 RMK AO2 SLP216
T02110183





000
SAUS44 KMEG 281254
MTRTUP
METAR KTUP 281253Z 00000KT 10SM OVC013 21/19 A3018 RMK AO2 SLP215
T02060189





000
SAUS44 KMEG 281154
MTRTUP
METAR KTUP 281153Z 00000KT 10SM OVC014 20/19 A3016 RMK AO2 SLP210
70112 T02000189 10200 20183 53013





000
SAUS44 KMEG 281154
MTRTUP
METAR KTUP 281153Z 00000KT 10SM OVC014 20/19 A3016 RMK AO2 SLP210
70112 T02000189 10200 20183 53013





000
SAUS44 KMEG 281054
MTRTUP
SPECI KTUP 281053Z 14003KT 5SM BR SCT002 BKN017 19/17 A3014 RMK AO2
T01890172





000
SAUS44 KMEG 281054
MTRTUP
SPECI KTUP 281053Z 14003KT 5SM BR SCT002 BKN017 19/17 A3014 RMK AO2
T01890172





000
SAUS44 KMEG 281049
MTRTUP
METAR KTUP 281048Z 14004KT 2 1/2SM BR BKN002 19/17 A3014 RMK AO2 VIS
1V5 SLP204 T01890172





000
SAUS44 KMEG 281049
MTRTUP
METAR KTUP 281048Z 14004KT 2 1/2SM BR BKN002 19/17 A3014 RMK AO2 VIS
1V5 SLP204 T01890172





000
SAUS44 KMEG 281042
MTRTUP
SPECI KTUP 281041Z 00000KT 1SM BR VV001 18/17 A3014 RMK AO2
T01830172





000
SAUS44 KMEG 281042
MTRTUP
SPECI KTUP 281041Z 00000KT 1SM BR VV001 18/17 A3014 RMK AO2
T01830172





000
SAUS44 KMEG 281032
MTRTUP
SPECI KTUP 281031Z 04003KT 3/4SM BR VV001 18/17 A3014 RMK AO2
T01830172





000
SAUS44 KMEG 281032
MTRTUP
SPECI KTUP 281031Z 04003KT 3/4SM BR VV001 18/17 A3014 RMK AO2
T01830172





000
SAUS44 KMEG 281030
MTRTUP
SPECI KTUP 281028Z 04003KT 1 1/4SM BR SCT001 BKN015 19/17 A3014 RMK
AO2 T01890172





000
SAUS44 KMEG 281025
MTRTUP
SPECI KTUP 281024Z 03003KT 2SM BR FEW001 SCT015 18/17 A3014 RMK AO2
VIS 1V5 T01830172





000
SAUS44 KMEG 281003
MTRTUP
SPECI KTUP 281002Z AUTO 00000KT 10SM SCT015 19/18 A3013 RMK AO2
T01940178





000
SAUS44 KMEG 280954
MTRTUP
METAR KTUP 280953Z AUTO 12003KT 10SM BKN015 19/18 A3013 RMK AO2
SLP199 T01940178





000
SAUS44 KMEG 280854
MTRTUP
METAR KTUP 280853Z AUTO 00000KT 10SM OVC019 20/18 A3013 RMK AO2
SLP198 T02000183 57009





000
SAUS44 KMEG 280754
MTRTUP
METAR KTUP 280753Z AUTO 00000KT 10SM OVC019 20/18 A3013 RMK AO2
SLP200 T02000183





000
SAUS44 KMEG 280654
MTRTUP
METAR KTUP 280653Z AUTO 00000KT 10SM OVC016 20/18 A3014 RMK AO2
SLP203 T02000183





000
SAUS44 KMEG 280643
MTRTUP
SPECI KTUP 280642Z AUTO 00000KT 10SM BKN016 19/18 A3014 RMK AO2
T01940183





000
SAUS44 KMEG 280554
MTRTUP
METAR KTUP 280553Z AUTO 20003KT 10SM CLR 19/18 A3015 RMK AO2 SLP206
60003 T01940178 10206 20189 402780189 50006





000
SAUS44 KMEG 280554
MTRTUP
METAR KTUP 280553Z AUTO 20003KT 10SM CLR 19/18 A3015 RMK AO2 SLP206
60003 T01940178 10206 20189 402780189 50006





000
SAUS44 KMEG 280455
MTRTUP
METAR KTUP 280453Z AUTO 00000KT 10SM FEW120 20/18 A3016 RMK AO2
SLP208 T02000183





000
SAUS44 KMEG 280407
MTRTUP
SPECI KTUP 280406Z AUTO 20004KT 10SM SCT009 SCT025 20/18 A3015 RMK
AO2 T02000183





000
SAUS44 KMEG 280354
MTRTUP
METAR KTUP 280353Z AUTO 20005KT 10SM BKN009 20/18 A3015 RMK AO2 CIG
007V013 SLP207 T02000183





000
SAUS44 KMEG 280354
MTRTUP
METAR KTUP 280353Z AUTO 20005KT 10SM BKN009 20/18 A3015 RMK AO2 CIG
007V013 SLP207 T02000183





000
SAUS44 KMEG 280254
MTRTUP
METAR KTUP 280253Z VRB05KT 10SM BKN007 20/18 A3013 RMK AO2 SLP200
60003 T02000183 53003





000
SAUS44 KMEG 280252
MTRTUP
SPECI KTUP 280251Z VRB06KT 10SM BKN007 20/18 A3013 RMK AO2





000
SAUS44 KMEG 280252
MTRTUP
SPECI KTUP 280251Z VRB06KT 10SM BKN007 20/18 A3013 RMK AO2





000
SAUS44 KMEG 280154
MTRTUP
METAR KTUP 280153Z 09005KT 10SM FEW006 SCT120 20/18 A3011 RMK AO2
RAE16 SLP191 P0001 T02000183





000
SAUS44 KMEG 280102
MTRTUP
SPECI KTUP 280101Z 09005KT 10SM -RA FEW005 SCT110 21/19 A3012 RMK
AO2 P0000 T02060189





000
SAUS44 KMEG 280054
MTRTUP
METAR KTUP 280053Z 10005KT 10SM -RA FEW110 21/19 A3012 RMK AO2
SLP197 P0002 T02060189





000
SAUS44 KMEG 272354
MTRTUP
METAR KTUP 272353Z 21012KT 10SM -RA OVC110 21/19 A3012 RMK AO2 RAB44
SLP195 P0000 60108 T02060189 10267 20200 58001





000
SAUS44 KMEG 272354
MTRTUP
METAR KTUP 272353Z 21012KT 10SM -RA OVC110 21/19 A3012 RMK AO2 RAB44
SLP195 P0000 60108 T02060189 10267 20200 58001





000
SAUS44 KMEG 272327
MTRTUP
SPECI KTUP 272326Z 19009KT 10SM FEW005 SCT075 BKN110 21/19 A3012 RMK
AO2 T02060189





000
SAUS44 KMEG 272254
MTRTUP
METAR KTUP 272253Z AUTO VRB06KT 10SM FEW110 21/19 A3012 RMK AO2
RAE31 SLP196 P0003 T02060189





000
SAUS44 KMEG 272154
MTRTUP
METAR KTUP 272153Z AUTO 00000KT 8SM -RA FEW095 BKN110 21/19 A3013
RMK AO2 LTG DSNT NE-SE TSE23 SLP198 P0013 T02060189





000
SAUS44 KMEG 272127
MTRTUP
SPECI KTUP 272125Z AUTO 17009KT 5SM RA BR OVC110 21/18 A3016 RMK AO2
LTG DSNT ALQDS TSE23 P0006 T02060183





000
SAUS44 KMEG 272106
MTRTUP
SPECI KTUP 272104Z AUTO 13005KT 10SM -TSRA SCT029 SCT070 BKN100
20/18 A3014 RMK AO2 LTG DSNT ALQDS P0001 T02000183





000
SAUS44 KMEG 272054
MTRTUP
METAR KTUP 272053Z AUTO 03008KT 3SM TSRA BR FEW011 BKN027 OVC090
20/18 A3012 RMK AO2 LTG DSNT ALQDS RAB23 TSB21 SLP198 P0092 60092
T02000183 55009





000
SAUS44 KMEG 272052
MTRTUP
SPECI KTUP 272051Z AUTO 03007KT 2 1/2SM TSRA BR FEW011 BKN027 OVC090
20/18 A3012 RMK AO2 LTG DSNT ALQDS RAB23 TSB21 P0091





000
SAUS44 KMEG 272040
MTRTUP
SPECI KTUP 272039Z AUTO 35014G20KT 1/2SM +TSRA FG BKN015 BKN031
OVC039 21/18 A3013 RMK AO2 LTG DSNT ALQDS RAB23 TSB21 P0065
T02060183





000
SAUS44 KMEG 272031
MTRTUP
SPECI KTUP 272029Z AUTO 33016G24KT 3/4SM +TSRA SCT011 BKN036 OVC080
22/19 A3015 RMK AO2 LTG DSNT ALQDS RAB23 TSB21 PRESRR P0012
T02220194





000
SAUS44 KMEG 272026
MTRTUP
SPECI KTUP 272025Z AUTO 30013G20KT 2 1/2SM -TSRA FEW011 BKN036
OVC080 24/21 A3014 RMK AO2 LTG DSNT ALQDS RAB23 TSB21 PRESRR P0001
T02390206





000
SAUS44 KMEG 272011
MTRTUP
SPECI KTUP 272010Z AUTO 00000KT 10SM VCTS SCT050 OVC075 25/21 A3012
RMK AO2 LTG DSNT ALQDS T02500211





000
SAUS44 KMEG 271954
MTRTUP
METAR KTUP 271953Z AUTO 09003KT 10SM BKN075 26/21 A3011 RMK AO2 LTG
DSNT ALQDS SLP192 T02560206





000
SAUS44 KMEG 271854
MTRTUP
METAR KTUP 271853Z 17003KT 10SM CLR 26/20 A3014 RMK AO2 LTG DSNT W
AND NW SLP202 T02610200





000
SAUS44 KMEG 271814
MTRTUP
SPECI KTUP 271813Z 19005KT 10SM SCT028 BKN034 27/19 A3016 RMK AO2
LTG DSNT W T02670194





000
SAUS44 KMEG 271814
MTRTUP
SPECI KTUP 271813Z 19005KT 10SM SCT028 BKN034 27/19 A3016 RMK AO2
LTG DSNT W T02670194





000
SAUS44 KMEG 271754
MTRTUP
METAR KTUP 271753Z 20009KT 10SM BKN026 BKN034 27/20 A3015 RMK AO2
SLP206 60001 T02670200 10278 20211 56010





000
SAUS44 KMEG 271754
MTRTUP
METAR KTUP 271753Z 20009KT 10SM BKN026 BKN034 27/20 A3015 RMK AO2
SLP206 60001 T02670200 10278 20211 56010





000
SAUS44 KMEG 271752
MTRTUP
SPECI KTUP 271751Z 18008KT 10SM BKN026 BKN034 27/19 A3015 RMK AO2





000
SAUS44 KMEG 271654
MTRTUP
METAR KTUP 271653Z 17007KT 10SM FEW022 27/21 A3015 RMK AO2 SLP207
T02720206





    US Dept of Commerce
    National Oceanic and Atmospheric Administration
    National Weather Service
    1325 East West Highway
    Silver Spring, MD 20910
    Page Author: NWS Internet Services Team
Disclaimer
Information Quality
Credits
Glossary
Privacy Policy
Freedom of Information Act (FOIA)
About Us
Career Opportunities